Arthurdale, West Virginia
Current Conditions -  °F | °C
As of 2:53 AM on Saturday 20 Dec 2014 (Local Time) from KMGW Reporting Station
Overcast Overcast  
Wind Chill: 29°   Ceiling: 2200
Heat Index: 29°   Visibility: 10mi
Dew Point: 20°   Wind: 0mph
Humidity: 69%   Direction: NA
Pressure: 30.23"   Gusts: NA
Location:  39.49°N, 79.82°W
Report Text: KMGW 200753Z AUTO 00000KT 10SM OVC022 M02/M07 A3023 RMK AO2 SLP250 T10171067 TSNO
Loading
Personal Weather Stations






























Interactive Weather Map New forecast layout! Learn more

10-Day Weather Forecast

Advertisements
Track Severe Weather on mobile